Time;durP1;ratioP1;P1;durP2;ratioP2;P2;SDS_P1;SDS_P2;PMS_P1;PMS_P2;Temp;Humidity;BMP_temperature;BMP_pressure;BME280_temperature;BME280_humidity;BME280_pressure;Samples;Min_cycle;Max_cycle;Signal;HPM_P1;HPM_P2
2021/03/09 00:01:16;;;;;;;89.63;35.05;;;;;;;;;;5066951;28;20458;-49
2021/03/09 00:03:42;;;;;;;89.20;34.42;;;;;;;;;;5051391;28;20198;-49
2021/03/09 00:06:08;;;;;;;93.73;37.70;;;;;;;;;;5051435;28;20532;-50
2021/03/09 00:08:34;;;;;;;88.70;34.90;;;;;;;;;;5051069;28;20404;-50
2021/03/09 00:11:00;;;;;;;97.93;37.47;;;;;;;;;;5051409;28;20498;-50
2021/03/09 00:13:26;;;;;;;90.07;35.83;;;;;;;;;;5051108;28;20208;-51
2021/03/09 00:15:52;;;;;;;86.40;35.07;;;;;;;;;;5061318;28;20942;-52
2021/03/09 00:18:18;;;;;;;87.57;33.53;;;;;;;;;;5071053;28;20861;-50
2021/03/09 00:20:46;;;;;;;92.80;36.97;;;;;;;;;;5070918;28;20404;-50
2021/03/09 00:23:11;;;;;;;79.82;34.58;;;;;;;;;;5071096;28;20935;-49
2021/03/09 00:25:37;;;;;;;90.47;35.50;;;;;;;;;;5070935;28;20174;-50
2021/03/09 00:28:03;;;;;;;97.80;37.43;;;;;;;;;;5070751;28;20502;-50
2021/03/09 00:30:29;;;;;;;88.90;37.22;;;;;;;;;;5070869;28;20498;-49
2021/03/09 00:32:55;;;;;;;88.30;36.80;;;;;;;;;;5056490;28;20268;-50
2021/03/09 00:35:21;;;;;;;91.23;36.50;;;;;;;;;;5050701;28;20269;-50
2021/03/09 00:37:47;;;;;;;89.20;35.50;;;;;;;;;;5050689;28;20408;-52
2021/03/09 00:40:14;;;;;;;89.33;33.63;;;;;;;;;;5050945;28;20409;-52
2021/03/09 00:42:42;;;;;;;83.97;35.13;;;;;;;;;;5050840;28;20457;-52
2021/03/09 00:45:08;;;;;;;83.93;34.88;;;;;;;;;;5050117;28;20605;-51
2021/03/09 00:47:34;;;;;;;89.90;35.58;;;;;;;;;;5050306;28;20191;-50
2021/03/09 00:50:00;;;;;;;102.20;36.30;;;;;;;;;;5050736;28;20171;-50
2021/03/09 00:52:29;;;;;;;83.67;33.03;;;;;;;;;;5050628;28;20405;-52
2021/03/09 00:54:54;;;;;;;87.38;32.78;;;;;;;;;;5050653;28;20448;-52
2021/03/09 00:57:20;;;;;;;91.33;34.40;;;;;;;;;;5050351;28;20564;-50
2021/03/09 00:59:46;;;;;;;94.47;35.37;;;;;;;;;;5050634;28;20490;-49
2021/03/09 01:02:13;;;;;;;92.30;35.60;;;;;;;;;;5050793;28;20497;-50
2021/03/09 01:04:39;;;;;;;86.07;33.08;;;;;;;;;;5051956;28;20473;-49
2021/03/09 01:07:06;;;;;;;91.20;36.00;;;;;;;;;;5050236;28;20163;-50
2021/03/09 01:09:34;;;;;;;79.35;35.33;;;;;;;;;;5050562;28;20409;-50
2021/03/09 01:12:01;;;;;;;92.15;36.05;;;;;;;;;;5060396;28;20224;-49
2021/03/09 01:14:29;;;;;;;85.80;36.13;;;;;;;;;;5070471;28;20182;-49
2021/03/09 01:16:55;;;;;;;83.60;36.80;;;;;;;;;;5070297;28;20676;-52
2021/03/09 01:19:21;;;;;;;87.53;36.40;;;;;;;;;;5068490;28;20189;-50
2021/03/09 01:21:47;;;;;;;89.63;33.83;;;;;;;;;;5070450;28;20460;-52
2021/03/09 01:24:13;;;;;;;97.17;34.33;;;;;;;;;;5070286;28;20514;-51
2021/03/09 01:26:40;;;;;;;94.60;34.97;;;;;;;;;;5070433;28;20761;-51
2021/03/09 01:29:06;;;;;;;82.85;34.58;;;;;;;;;;5070056;28;20190;-49
2021/03/09 01:31:32;;;;;;;94.87;35.03;;;;;;;;;;5070351;28;20528;-50
2021/03/09 01:33:59;;;;;;;100.57;37.03;;;;;;;;;;5070214;28;20415;-50
2021/03/09 01:36:25;;;;;;;94.97;38.30;;;;;;;;;;5070329;28;20407;-52
2021/03/09 01:38:51;;;;;;;85.93;34.23;;;;;;;;;;5062947;28;20184;-50
2021/03/09 01:41:17;;;;;;;101.40;38.30;;;;;;;;;;5050598;28;20472;-49
2021/03/09 01:43:43;;;;;;;90.07;34.77;;;;;;;;;;5050136;28;20455;-49
2021/03/09 01:46:09;;;;;;;93.75;33.78;;;;;;;;;;5050391;28;20401;-50
2021/03/09 01:48:37;;;;;;;92.25;35.55;;;;;;;;;;5050303;28;20203;-52
2021/03/09 01:51:03;;;;;;;87.72;33.55;;;;;;;;;;5050190;28;20163;-50
2021/03/09 01:53:30;;;;;;;97.50;36.38;;;;;;;;;;5050311;28;20167;-49
2021/03/09 01:55:56;;;;;;;93.70;37.35;;;;;;;;;;5050158;28;20171;-49
2021/03/09 01:58:23;;;;;;;95.40;36.00;;;;;;;;;;5053116;28;20163;-51
2021/03/09 02:00:49;;;;;;;91.50;35.03;;;;;;;;;;5053281;28;20163;-49
2021/03/09 02:03:18;;;;;;;96.73;36.00;;;;;;;;;;5065856;28;20206;-50
2021/03/09 02:05:45;;;;;;;103.20;35.63;;;;;;;;;;5073209;28;20393;-49
2021/03/09 02:08:11;;;;;;;93.53;38.38;;;;;;;;;;5073723;28;20165;-50
2021/03/09 02:10:37;;;;;;;92.15;38.40;;;;;;;;;;5073664;28;20166;-50
2021/03/09 02:13:12;;;;;;;106.50;40.33;;;;;;;;;;5073683;28;20668;-50
2021/03/09 02:15:42;;;;;;;102.50;41.30;;;;;;;;;;5073601;28;20230;-50
2021/03/09 02:18:13;;;;;;;93.10;41.33;;;;;;;;;;5073426;28;20660;-50
2021/03/09 02:20:42;;;;;;;102.90;42.25;;;;;;;;;;5073640;28;20169;-52
2021/03/09 02:23:17;;;;;;;102.85;41.20;;;;;;;;;;5073435;28;20454;-49
2021/03/09 02:25:43;;;;;;;94.22;39.38;;;;;;;;;;5073390;28;20238;-50
2021/03/09 02:28:28;;;;;;;97.73;39.13;;;;;;;;;;5060546;28;20283;-52
2021/03/09 02:30:55;;;;;;;119.97;41.38;;;;;;;;;;5053366;28;20398;-50
2021/03/09 02:33:25;;;;;;;96.38;40.53;;;;;;;;;;5053175;28;20198;-51
2021/03/09 02:35:59;;;;;;;105.20;41.92;;;;;;;;;;5053295;28;20234;-50
2021/03/09 02:38:26;;;;;;;96.45;41.03;;;;;;;;;;5052816;28;20173;-51
2021/03/09 02:40:57;;;;;;;97.15;41.45;;;;;;;;;;5053064;28;20177;-50
2021/03/09 02:43:24;;;;;;;95.63;41.90;;;;;;;;;;5052875;28;20167;-50
2021/03/09 02:45:51;;;;;;;106.93;39.85;;;;;;;;;;5053061;28;20177;-52
2021/03/09 02:48:20;;;;;;;93.82;41.03;;;;;;;;;;5052586;28;20170;-49
2021/03/09 02:50:47;;;;;;;105.78;41.97;;;;;;;;;;5052847;28;20180;-50
2021/03/09 02:53:16;;;;;;;114.75;45.72;;;;;;;;;;5052682;28;20259;-51
2021/03/09 02:55:43;;;;;;;104.10;41.38;;;;;;;;;;5052982;28;20548;-50
2021/03/09 02:58:13;;;;;;;106.53;43.53;;;;;;;;;;5051833;28;20269;-49
2021/03/09 03:00:40;;;;;;;102.43;43.30;;;;;;;;;;5052741;28;20707;-49
2021/03/09 03:03:08;;;;;;;93.97;41.40;;;;;;;;;;5052629;28;20229;-50
2021/03/09 03:05:36;;;;;;;92.57;41.20;;;;;;;;;;5052667;28;20210;-52
2021/03/09 03:08:05;;;;;;;99.03;41.63;;;;;;;;;;5051997;28;20642;-50
2021/03/09 03:10:32;;;;;;;96.85;40.72;;;;;;;;;;5052008;28;20169;-52
2021/03/09 03:12:59;;;;;;;98.20;40.88;;;;;;;;;;5052526;28;20171;-50
2021/03/09 03:15:27;;;;;;;90.03;39.33;;;;;;;;;;5052289;28;20659;-50
2021/03/09 03:17:54;;;;;;;92.95;39.72;;;;;;;;;;5052146;28;20170;-49
2021/03/09 03:20:22;;;;;;;101.03;42.38;;;;;;;;;;5052759;28;20591;-52
2021/03/09 03:22:48;;;;;;;91.10;37.42;;;;;;;;;;5052489;28;20241;-49
2021/03/09 03:25:14;;;;;;;105.53;41.67;;;;;;;;;;5052094;28;20185;-52
2021/03/09 03:27:42;;;;;;;95.95;41.53;;;;;;;;;;5051375;28;20238;-51
2021/03/09 03:30:09;;;;;;;94.57;42.30;;;;;;;;;;5052108;28;20170;-50
2021/03/09 03:32:36;;;;;;;111.90;42.10;;;;;;;;;;5052230;28;20174;-49
2021/03/09 03:35:02;;;;;;;100.28;41.85;;;;;;;;;;5052137;28;20188;-49
2021/03/09 03:37:28;;;;;;;98.23;40.97;;;;;;;;;;5051807;28;20200;-49
2021/03/09 03:39:54;;;;;;;93.40;40.10;;;;;;;;;;5052130;28;20753;-49
2021/03/09 03:42:20;;;;;;;97.13;38.40;;;;;;;;;;5051837;28;20440;-49
2021/03/09 03:44:46;;;;;;;87.47;40.20;;;;;;;;;;5051919;28;20195;-49
2021/03/09 03:47:12;;;;;;;103.67;40.23;;;;;;;;;;5051609;28;21091;-49
2021/03/09 03:49:38;;;;;;;94.73;41.03;;;;;;;;;;5051934;28;20408;-50
2021/03/09 03:52:18;;;;;;;85.47;40.15;;;;;;;;;;5051824;28;20405;-49
2021/03/09 03:55:07;;;;;;;95.95;39.90;;;;;;;;;;5051871;28;20569;-49
2021/03/09 03:57:39;;;;;;;102.03;42.47;;;;;;;;;;5037874;28;20200;-53
2021/03/09 04:00:07;;;;;;;89.35;36.72;;;;;;;;;;5071775;28;20691;-50
2021/03/09 04:02:37;;;;;;;87.60;40.10;;;;;;;;;;5071372;28;20196;-49
2021/03/09 04:05:05;;;;;;;90.72;41.47;;;;;;;;;;5071566;28;20720;-54
2021/03/09 04:07:31;;;;;;;94.80;38.97;;;;;;;;;;5071211;28;20692;-52
2021/03/09 04:09:57;;;;;;;95.65;39.08;;;;;;;;;;5071461;28;20159;-52
2021/03/09 04:12:25;;;;;;;100.33;38.00;;;;;;;;;;5071260;28;20335;-52
2021/03/09 04:14:51;;;;;;;85.28;37.25;;;;;;;;;;5071319;28;20474;-51
2021/03/09 04:17:18;;;;;;;104.90;42.90;;;;;;;;;;5071065;28;20180;-51
2021/03/09 04:19:44;;;;;;;90.13;38.70;;;;;;;;;;5071067;28;20403;-49
2021/03/09 04:22:10;;;;;;;90.65;37.33;;;;;;;;;;5071134;28;20271;-49
2021/03/09 04:24:37;;;;;;;93.50;37.80;;;;;;;;;;5070870;28;20258;-49
2021/03/09 04:27:03;;;;;;;98.60;39.70;;;;;;;;;;5069955;28;20400;-50
2021/03/09 04:29:29;;;;;;;83.93;38.70;;;;;;;;;;5054932;28;20195;-49
2021/03/09 04:31:55;;;;;;;100.80;43.00;;;;;;;;;;5071119;28;20169;-49
2021/03/09 04:34:22;;;;;;;105.13;42.53;;;;;;;;;;5070828;28;20251;-49
2021/03/09 04:36:49;;;;;;;96.20;40.15;;;;;;;;;;5070887;28;20254;-49
2021/03/09 04:39:15;;;;;;;95.20;39.80;;;;;;;;;;5070565;28;20194;-49
2021/03/09 04:41:41;;;;;;;92.85;38.38;;;;;;;;;;5070928;28;20685;-52
2021/03/09 04:44:07;;;;;;;95.07;40.30;;;;;;;;;;5070744;28;20186;-49
2021/03/09 04:46:34;;;;;;;95.20;39.83;;;;;;;;;;5070855;28;20408;-49
2021/03/09 04:49:00;;;;;;;100.57;41.42;;;;;;;;;;5070612;28;20394;-52
2021/03/09 04:51:26;;;;;;;95.75;40.10;;;;;;;;;;5070627;28;20639;-51
2021/03/09 04:53:53;;;;;;;97.50;40.63;;;;;;;;;;5070674;28;20667;-49
2021/03/09 04:56:19;;;;;;;94.68;39.97;;;;;;;;;;5070557;28;20173;-49
2021/03/09 04:58:45;;;;;;;88.30;41.85;;;;;;;;;;5069233;28;20188;-49
2021/03/09 05:01:11;;;;;;;92.20;41.33;;;;;;;;;;5070484;28;20712;-49
2021/03/09 05:03:37;;;;;;;89.80;39.85;;;;;;;;;;5070652;28;20422;-49
2021/03/09 05:06:04;;;;;;;94.90;40.75;;;;;;;;;;5070494;28;20253;-50
2021/03/09 05:08:30;;;;;;;91.47;41.60;;;;;;;;;;5070480;28;20169;-49
2021/03/09 05:10:56;;;;;;;94.20;42.17;;;;;;;;;;5070496;28;20163;-49
2021/03/09 05:13:22;;;;;;;97.82;42.25;;;;;;;;;;5070600;28;20399;-52
2021/03/09 05:15:49;;;;;;;92.00;40.83;;;;;;;;;;5070587;28;20209;-52
2021/03/09 05:18:15;;;;;;;93.13;41.97;;;;;;;;;;5070293;28;20578;-50
2021/03/09 05:20:42;;;;;;;98.95;42.00;;;;;;;;;;5070524;28;20701;-49
2021/03/09 05:23:08;;;;;;;107.38;44.03;;;;;;;;;;5070280;28;20665;-49
2021/03/09 05:25:34;;;;;;;111.75;44.47;;;;;;;;;;5070457;28;20220;-49
2021/03/09 05:28:00;;;;;;;104.45;44.90;;;;;;;;;;5059374;28;20190;-49
2021/03/09 05:30:26;;;;;;;94.82;43.17;;;;;;;;;;5050770;28;20175;-49
2021/03/09 05:32:54;;;;;;;114.80;46.13;;;;;;;;;;5053073;28;20180;-49
2021/03/09 05:35:20;;;;;;;104.35;47.80;;;;;;;;;;5054417;28;20201;-49
2021/03/09 05:37:47;;;;;;;103.63;45.35;;;;;;;;;;5054048;28;20710;-49
2021/03/09 05:40:14;;;;;;;128.70;48.95;;;;;;;;;;5054595;28;20576;-49
2021/03/09 05:42:40;;;;;;;108.60;46.80;;;;;;;;;;5054161;28;20202;-50
2021/03/09 05:45:07;;;;;;;103.65;46.20;;;;;;;;;;5054268;28;20188;-49
2021/03/09 05:47:36;;;;;;;104.25;46.00;;;;;;;;;;5054013;28;20184;-49
2021/03/09 05:50:03;;;;;;;105.72;46.13;;;;;;;;;;5053927;28;20212;-49
2021/03/09 05:52:32;;;;;;;101.13;47.70;;;;;;;;;;5053957;28;20586;-52
2021/03/09 05:54:58;;;;;;;111.38;46.63;;;;;;;;;;5053818;28;20193;-50
2021/03/09 05:57:24;;;;;;;101.43;43.37;;;;;;;;;;5061716;28;20180;-50
2021/03/09 05:59:50;;;;;;;102.55;45.33;;;;;;;;;;5073758;28;20891;-50
2021/03/09 06:02:18;;;;;;;106.97;48.65;;;;;;;;;;5073727;28;20182;-51
2021/03/09 06:04:44;;;;;;;91.68;44.53;;;;;;;;;;5072659;28;20194;-53
2021/03/09 06:07:11;;;;;;;99.37;44.57;;;;;;;;;;5073494;28;20169;-51
2021/03/09 06:09:38;;;;;;;91.13;42.58;;;;;;;;;;5073613;28;20432;-49
2021/03/09 06:12:26;;;;;;;84.68;40.13;;;;;;;;;;5073713;28;20638;-50
2021/03/09 06:14:52;;;;;;;87.40;39.55;;;;;;;;;;5073432;28;20190;-50
2021/03/09 06:17:24;;;;;;;95.23;44.47;;;;;;;;;;5073386;28;20240;-52
2021/03/09 06:19:50;;;;;;;87.65;42.55;;;;;;;;;;5073695;28;20486;-49
2021/03/09 06:22:16;;;;;;;82.97;42.33;;;;;;;;;;5073317;28;20224;-50
2021/03/09 06:24:43;;;;;;;89.93;43.10;;;;;;;;;;5073294;28;20919;-50
2021/03/09 06:27:22;;;;;;;94.18;43.53;;;;;;;;;;5067593;28;20176;-51
2021/03/09 06:29:48;;;;;;;90.53;39.65;;;;;;;;;;5053333;28;20179;-50
2021/03/09 06:32:14;;;;;;;98.87;43.40;;;;;;;;;;5053206;28;20186;-51
2021/03/09 06:34:40;;;;;;;96.45;41.72;;;;;;;;;;5053201;28;20512;-52
2021/03/09 06:37:12;;;;;;;104.20;44.57;;;;;;;;;;5053137;28;20254;-52
2021/03/09 06:39:45;;;;;;;92.30;42.53;;;;;;;;;;5053133;28;20404;-49
2021/03/09 06:42:13;;;;;;;98.00;44.75;;;;;;;;;;5052938;28;20204;-50
2021/03/09 06:44:39;;;;;;;102.72;43.58;;;;;;;;;;5051689;28;20269;-49
2021/03/09 06:47:06;;;;;;;91.95;41.90;;;;;;;;;;5052705;28;20169;-49
2021/03/09 06:49:53;;;;;;;100.32;42.70;;;;;;;;;;5052989;28;20169;-49
2021/03/09 06:52:20;;;;;;;104.90;45.25;;;;;;;;;;5052554;28;20179;-50
2021/03/09 06:54:47;;;;;;;93.53;43.50;;;;;;;;;;5052887;28;20618;-50
2021/03/09 06:57:13;;;;;;;100.32;45.25;;;;;;;;;;5062237;28;20552;-50
2021/03/09 06:59:45;;;;;;;110.55;46.40;;;;;;;;;;5072931;28;20172;-50
2021/03/09 07:02:11;;;;;;;105.50;44.22;;;;;;;;;;5072691;28;20216;-52
2021/03/09 07:04:40;;;;;;;96.63;42.17;;;;;;;;;;5072543;28;20252;-53
2021/03/09 07:07:07;;;;;;;91.35;39.33;;;;;;;;;;5072394;28;20388;-50
2021/03/09 07:09:35;;;;;;;86.28;40.05;;;;;;;;;;5072416;28;20160;-50
2021/03/09 07:12:02;;;;;;;90.82;39.25;;;;;;;;;;5072625;28;20167;-49
2021/03/09 07:14:29;;;;;;;80.35;37.63;;;;;;;;;;5072303;28;20272;-49
2021/03/09 07:16:55;;;;;;;72.63;37.38;;;;;;;;;;5071913;28;20190;-49
2021/03/09 07:19:24;;;;;;;75.30;34.53;;;;;;;;;;5063413;28;20185;-50
2021/03/09 07:21:53;;;;;;;74.25;33.88;;;;;;;;;;5053951;28;21074;-49
2021/03/09 07:24:21;;;;;;;69.50;32.53;;;;;;;;;;5071379;28;20675;-53
2021/03/09 07:26:49;;;;;;;71.00;34.42;;;;;;;;;;5071754;28;20199;-49
2021/03/09 07:29:17;;;;;;;75.00;33.15;;;;;;;;;;5066006;28;20192;-49
2021/03/09 07:31:44;;;;;;;66.75;31.73;;;;;;;;;;5062521;28;20187;-50
2021/03/09 07:34:11;;;;;;;57.20;30.40;;;;;;;;;;5071467;28;20182;-52
2021/03/09 07:36:38;;;;;;;65.80;28.10;;;;;;;;;;5071213;28;20191;-54
2021/03/09 07:39:04;;;;;;;62.47;31.50;;;;;;;;;;5071307;28;20170;-50
2021/03/09 07:41:31;;;;;;;64.47;30.15;;;;;;;;;;5071104;28;20198;-49
2021/03/09 07:43:59;;;;;;;69.45;31.85;;;;;;;;;;5071399;28;20186;-49
2021/03/09 07:46:27;;;;;;;67.95;32.25;;;;;;;;;;5071009;28;20172;-49
2021/03/09 07:48:56;;;;;;;66.80;30.55;;;;;;;;;;5068979;28;20667;-49
2021/03/09 07:51:22;;;;;;;63.42;32.22;;;;;;;;;;5074260;28;20182;-49
2021/03/09 07:54:07;;;;;;;62.65;32.88;;;;;;;;;;5075469;28;20195;-52
2021/03/09 07:56:33;;;;;;;68.20;30.67;;;;;;;;;;5073916;28;20189;-52
2021/03/09 07:59:06;;;;;;;61.53;29.30;;;;;;;;;;5074514;28;20186;-52
2021/03/09 08:01:53;;;;;;;65.53;30.27;;;;;;;;;;5074680;28;20493;-52
2021/03/09 08:04:19;;;;;;;57.65;28.95;;;;;;;;;;5075113;28;20203;-52
2021/03/09 08:06:46;;;;;;;50.70;27.85;;;;;;;;;;5075576;28;20168;-52
2021/03/09 08:09:31;;;;;;;71.35;32.65;;;;;;;;;;5075053;28;20172;-53
2021/03/09 08:11:57;;;;;;;50.42;26.60;;;;;;;;;;5075944;28;20174;-52
2021/03/09 08:14:23;;;;;;;61.83;30.80;;;;;;;;;;5075439;28;20852;-52
2021/03/09 08:16:50;;;;;;;58.38;31.73;;;;;;;;;;5073673;28;21001;-51
2021/03/09 08:19:16;;;;;;;56.67;28.08;;;;;;;;;;5070208;28;20173;-49
2021/03/09 08:21:52;;;;;;;54.90;28.83;;;;;;;;;;5068971;28;20202;-50
2021/03/09 08:24:19;;;;;;;57.95;29.13;;;;;;;;;;5069962;28;20429;-51
2021/03/09 08:26:45;;;;;;;62.58;31.08;;;;;;;;;;5069361;28;20184;-53
2021/03/09 08:29:30;;;;;;;59.50;33.10;;;;;;;;;;5070076;28;20188;-52
2021/03/09 08:32:14;;;;;;;67.00;32.20;;;;;;;;;;5070413;28;20190;-50
2021/03/09 08:34:41;;;;;;;57.63;30.08;;;;;;;;;;5069474;28;20224;-50
2021/03/09 08:37:28;;;;;;;56.80;32.10;;;;;;;;;;5070652;28;20698;-51
2021/03/09 08:40:05;;;;;;;62.95;33.15;;;;;;;;;;5070883;28;20410;-50
2021/03/09 08:42:51;;;;;;;72.82;35.20;;;;;;;;;;5070697;28;20227;-49
2021/03/09 08:45:35;;;;;;;67.68;32.83;;;;;;;;;;5070754;28;20192;-49
2021/03/09 08:48:01;;;;;;;63.53;32.17;;;;;;;;;;5070582;28;20188;-49
2021/03/09 08:50:43;;;;;;;60.88;30.25;;;;;;;;;;5064570;28;20175;-50
2021/03/09 08:53:27;;;;;;;63.75;33.60;;;;;;;;;;5050562;28;20845;-50
2021/03/09 08:55:54;;;;;;;60.83;32.72;;;;;;;;;;5050820;28;20160;-51
2021/03/09 08:58:20;;;;;;;62.00;30.90;;;;;;;;;;5050534;28;20173;-49
2021/03/09 09:00:46;;;;;;;55.90;31.53;;;;;;;;;;5070771;28;20172;-50
2021/03/09 09:03:12;;;;;;;67.33;32.97;;;;;;;;;;5070555;28;20488;-50
2021/03/09 09:05:38;;;;;;;61.30;32.63;;;;;;;;;;5070643;28;20402;-50
2021/03/09 09:08:04;;;;;;;56.70;31.10;;;;;;;;;;5069531;28;20409;-50
2021/03/09 09:10:30;;;;;;;60.40;31.98;;;;;;;;;;5070673;28;20397;-50
2021/03/09 09:12:56;;;;;;;58.03;30.33;;;;;;;;;;5070485;28;20166;-50
2021/03/09 09:15:28;;;;;;;60.15;30.98;;;;;;;;;;5070595;28;20217;-49
2021/03/09 09:17:55;;;;;;;50.92;29.63;;;;;;;;;;5070039;28;20716;-50
2021/03/09 09:20:23;;;;;;;56.15;31.20;;;;;;;;;;5072784;28;20175;-49
2021/03/09 09:22:51;;;;;;;55.40;30.60;;;;;;;;;;5073628;28;20201;-55
2021/03/09 09:25:18;;;;;;;56.35;30.63;;;;;;;;;;5072771;28;20190;-54
2021/03/09 09:27:49;;;;;;;53.63;26.88;;;;;;;;;;5074348;28;20167;-52
2021/03/09 09:30:20;;;;;;;50.45;25.90;;;;;;;;;;5075471;28;20168;-52
2021/03/09 09:32:47;;;;;;;40.38;25.85;;;;;;;;;;5075167;28;20169;-52
2021/03/09 09:35:14;;;;;;;51.13;27.40;;;;;;;;;;5075261;28;20202;-53
2021/03/09 09:37:46;;;;;;;49.15;25.90;;;;;;;;;;5075772;28;20162;-53
2021/03/09 09:40:13;;;;;;;49.30;27.85;;;;;;;;;;5074684;28;20693;-51
2021/03/09 09:42:39;;;;;;;45.70;25.75;;;;;;;;;;5076377;28;20736;-53
2021/03/09 09:45:05;;;;;;;47.50;26.57;;;;;;;;;;5077394;28;20189;-53
2021/03/09 09:47:32;;;;;;;44.08;23.23;;;;;;;;;;5076741;28;20910;-52
2021/03/09 09:49:58;;;;;;;50.33;23.92;;;;;;;;;;5075176;28;20173;-52
2021/03/09 09:52:25;;;;;;;45.10;24.40;;;;;;;;;;5077394;28;20182;-54
2021/03/09 09:54:52;;;;;;;44.33;23.83;;;;;;;;;;5077088;28;20212;-50
2021/03/09 09:57:19;;;;;;;48.33;25.90;;;;;;;;;;5077106;28;20180;-52
2021/03/09 09:59:45;;;;;;;36.70;22.92;;;;;;;;;;5076672;28;20181;-52
2021/03/09 10:02:18;;;;;;;36.78;21.40;;;;;;;;;;5076698;28;20269;-52
2021/03/09 10:04:44;;;;;;;39.45;21.80;;;;;;;;;;5076348;28;20269;-53
2021/03/09 10:07:17;;;;;;;43.03;22.52;;;;;;;;;;5076575;28;20185;-53
2021/03/09 10:10:06;;;;;;;43.53;23.50;;;;;;;;;;5070861;28;20264;-52
2021/03/09 10:12:33;;;;;;;40.08;22.90;;;;;;;;;;5058315;28;20201;-52
2021/03/09 10:14:59;;;;;;;41.63;23.00;;;;;;;;;;5069999;28;20662;-51
2021/03/09 10:17:25;;;;;;;43.77;24.43;;;;;;;;;;5069610;28;20196;-51
2021/03/09 10:19:52;;;;;;;42.30;22.52;;;;;;;;;;5073674;28;20486;-52
2021/03/09 10:22:19;;;;;;;44.60;24.15;;;;;;;;;;5053470;28;20292;-53
2021/03/09 10:24:45;;;;;;;43.65;24.77;;;;;;;;;;5052183;28;20684;-51
2021/03/09 10:27:15;;;;;;;42.28;22.35;;;;;;;;;;5053429;28;20708;-53
2021/03/09 10:29:41;;;;;;;45.25;23.58;;;;;;;;;;5052005;28;20282;-51
2021/03/09 10:32:13;;;;;;;39.65;22.17;;;;;;;;;;5053585;28;20658;-52
2021/03/09 10:34:52;;;;;;;41.20;23.77;;;;;;;;;;5053351;28;20190;-51
2021/03/09 10:37:18;;;;;;;43.78;23.92;;;;;;;;;;5052945;28;20185;-51
2021/03/09 10:39:55;;;;;;;42.03;21.88;;;;;;;;;;5052868;28;20166;-51
2021/03/09 10:42:31;;;;;;;42.15;21.90;;;;;;;;;;5052751;28;20198;-52
2021/03/09 10:45:20;;;;;;;35.53;21.05;;;;;;;;;;5052998;28;20285;-51
2021/03/09 10:47:49;;;;;;;37.08;19.52;;;;;;;;;;5052788;28;20163;-51
2021/03/09 10:50:15;;;;;;;37.58;22.23;;;;;;;;;;5052331;28;20264;-51
2021/03/09 10:52:41;;;;;;;29.75;17.73;;;;;;;;;;5064030;28;20184;-51
2021/03/09 10:55:09;;;;;;;30.63;16.07;;;;;;;;;;5072984;28;20284;-51
2021/03/09 10:57:35;;;;;;;26.35;16.13;;;;;;;;;;5072504;28;20425;-52
2021/03/09 11:00:02;;;;;;;28.13;16.57;;;;;;;;;;5072817;28;20657;-51
2021/03/09 11:02:28;;;;;;;26.15;15.50;;;;;;;;;;5072461;28;20500;-52
2021/03/09 11:04:54;;;;;;;28.67;16.42;;;;;;;;;;5072679;28;20710;-51
2021/03/09 11:07:20;;;;;;;26.50;17.10;;;;;;;;;;5072267;28;20208;-51
2021/03/09 11:09:46;;;;;;;25.70;16.80;;;;;;;;;;5072700;28;20404;-52
2021/03/09 11:12:12;;;;;;;27.13;16.70;;;;;;;;;;5072222;28;20171;-51
2021/03/09 11:14:38;;;;;;;26.83;16.17;;;;;;;;;;5072428;28;20416;-52
2021/03/09 11:17:04;;;;;;;34.30;18.63;;;;;;;;;;5072196;28;20641;-52
2021/03/09 11:19:30;;;;;;;28.47;17.60;;;;;;;;;;5072429;28;21041;-52
2021/03/09 11:21:56;;;;;;;31.77;19.60;;;;;;;;;;5052862;28;20449;-51
2021/03/09 11:24:22;;;;;;;28.00;17.33;;;;;;;;;;5052218;28;20193;-51
2021/03/09 11:26:50;;;;;;;32.47;19.80;;;;;;;;;;5052312;28;20893;-51
2021/03/09 11:29:16;;;;;;;33.55;20.40;;;;;;;;;;5051352;28;20837;-51
2021/03/09 11:31:42;;;;;;;31.33;19.80;;;;;;;;;;5051997;28;20178;-51
2021/03/09 11:34:09;;;;;;;34.72;19.42;;;;;;;;;;5052066;28;20417;-51
2021/03/09 11:36:35;;;;;;;31.00;18.67;;;;;;;;;;5052072;28;20163;-51
2021/03/09 11:39:01;;;;;;;30.33;19.03;;;;;;;;;;5051932;28;20462;-51
2021/03/09 11:41:27;;;;;;;31.07;19.53;;;;;;;;;;5051840;28;20421;-51
2021/03/09 11:43:53;;;;;;;35.73;19.80;;;;;;;;;;5051858;28;20418;-51
2021/03/09 11:46:19;;;;;;;35.07;20.30;;;;;;;;;;5051746;28;20740;-51
2021/03/09 11:48:45;;;;;;;33.53;20.63;;;;;;;;;;5051732;28;20889;-51
2021/03/09 11:51:13;;;;;;;37.67;21.23;;;;;;;;;;5051443;28;20457;-51
2021/03/09 11:53:39;;;;;;;34.17;21.15;;;;;;;;;;5051874;28;20417;-52
2021/03/09 11:56:05;;;;;;;36.53;21.70;;;;;;;;;;5051760;28;20174;-51
2021/03/09 11:58:31;;;;;;;38.13;21.77;;;;;;;;;;5051397;28;20421;-51
2021/03/09 12:00:57;;;;;;;55.97;26.63;;;;;;;;;;5051928;28;20800;-51
2021/03/09 12:03:23;;;;;;;52.77;25.70;;;;;;;;;;5051476;28;20200;-51
2021/03/09 12:05:49;;;;;;;46.33;26.33;;;;;;;;;;5051694;28;20851;-52
2021/03/09 12:08:15;;;;;;;46.10;25.97;;;;;;;;;;5051231;28;20191;-51
2021/03/09 12:10:41;;;;;;;48.03;24.57;;;;;;;;;;5051577;28;20389;-51
2021/03/09 12:13:07;;;;;;;48.38;25.75;;;;;;;;;;5051280;28;20447;-52
2021/03/09 12:15:33;;;;;;;42.20;23.90;;;;;;;;;;5051268;28;20195;-52
2021/03/09 12:17:59;;;;;;;47.50;24.53;;;;;;;;;;5050973;28;20393;-52
2021/03/09 12:20:25;;;;;;;47.50;24.77;;;;;;;;;;5051258;28;20800;-54
2021/03/09 12:22:51;;;;;;;46.37;25.17;;;;;;;;;;5051027;28;20224;-51
2021/03/09 12:25:17;;;;;;;53.70;27.13;;;;;;;;;;5050998;28;20460;-52
2021/03/09 12:27:43;;;;;;;52.40;28.55;;;;;;;;;;5050674;28;20744;-50
2021/03/09 12:30:10;;;;;;;52.03;28.48;;;;;;;;;;5050881;28;20189;-51
2021/03/09 12:32:36;;;;;;;50.30;27.85;;;;;;;;;;5051110;28;20174;-51
2021/03/09 12:35:02;;;;;;;54.53;30.13;;;;;;;;;;5050790;28;20187;-51
2021/03/09 12:37:28;;;;;;;60.22;30.25;;;;;;;;;;5049479;28;20174;-51
2021/03/09 12:39:54;;;;;;;52.93;28.10;;;;;;;;;;5050852;28;20166;-51
2021/03/09 12:42:20;;;;;;;57.13;28.90;;;;;;;;;;5050692;28;20444;-51
2021/03/09 12:44:46;;;;;;;52.45;28.25;;;;;;;;;;5050793;28;20436;-51
2021/03/09 12:47:12;;;;;;;58.70;27.30;;;;;;;;;;5050493;28;20535;-51
2021/03/09 12:49:38;;;;;;;60.70;29.07;;;;;;;;;;5050760;28;20440;-51
2021/03/09 12:52:04;;;;;;;52.23;28.73;;;;;;;;;;5051028;28;20431;-51
2021/03/09 12:54:30;;;;;;;65.00;29.00;;;;;;;;;;5063851;28;20522;-51
2021/03/09 12:56:56;;;;;;;56.55;29.35;;;;;;;;;;5070298;28;20212;-51
2021/03/09 12:59:22;;;;;;;61.97;32.25;;;;;;;;;;5070703;28;20174;-51
2021/03/09 13:01:48;;;;;;;61.53;31.00;;;;;;;;;;5070703;28;20504;-51
2021/03/09 13:04:14;;;;;;;61.45;33.25;;;;;;;;;;5070245;28;20595;-52
2021/03/09 13:06:40;;;;;;;62.57;30.20;;;;;;;;;;5070111;28;20170;-51
2021/03/09 13:09:06;;;;;;;54.25;29.50;;;;;;;;;;5057127;28;20421;-51
2021/03/09 13:11:33;;;;;;;66.43;30.95;;;;;;;;;;5071349;28;20193;-53
2021/03/09 13:14:00;;;;;;;62.30;30.92;;;;;;;;;;5069788;28;20579;-52
2021/03/09 13:16:27;;;;;;;61.58;30.10;;;;;;;;;;5069901;28;20240;-50
2021/03/09 13:18:53;;;;;;;58.65;31.65;;;;;;;;;;5069393;28;20197;-51
2021/03/09 13:21:20;;;;;;;55.63;32.25;;;;;;;;;;5069979;28;20166;-50
2021/03/09 13:23:46;;;;;;;68.38;32.13;;;;;;;;;;5053011;28;20199;-52
2021/03/09 13:26:12;;;;;;;63.08;31.52;;;;;;;;;;5049587;28;20246;-53
2021/03/09 13:28:39;;;;;;;60.70;31.00;;;;;;;;;;5050133;28;20186;-49
2021/03/09 13:31:05;;;;;;;66.70;33.28;;;;;;;;;;5049619;28;20159;-49
2021/03/09 13:33:31;;;;;;;70.30;32.95;;;;;;;;;;5049791;28;20642;-49
2021/03/09 13:35:57;;;;;;;63.33;32.60;;;;;;;;;;5050550;28;20163;-50
2021/03/09 13:38:23;;;;;;;67.25;33.08;;;;;;;;;;5049959;28;20253;-51
2021/03/09 13:40:49;;;;;;;68.65;31.65;;;;;;;;;;5049464;28;20197;-51
2021/03/09 13:43:15;;;;;;;67.97;33.10;;;;;;;;;;5049362;28;20199;-51
2021/03/09 13:45:41;;;;;;;61.60;30.77;;;;;;;;;;5050630;28;20538;-52
2021/03/09 13:48:08;;;;;;;58.23;32.47;;;;;;;;;;5052348;28;20182;-50
2021/03/09 13:50:34;;;;;;;60.58;34.55;;;;;;;;;;5050376;28;20402;-50
2021/03/09 13:53:00;;;;;;;66.85;32.72;;;;;;;;;;5051143;28;20179;-50
2021/03/09 13:55:26;;;;;;;58.37;31.70;;;;;;;;;;5054201;28;20349;-50
2021/03/09 13:57:52;;;;;;;63.97;32.37;;;;;;;;;;5053901;28;20414;-50
2021/03/09 14:00:18;;;;;;;75.30;34.47;;;;;;;;;;5054297;28;20456;-50
2021/03/09 14:02:44;;;;;;;66.07;33.55;;;;;;;;;;5054415;28;20201;-50
2021/03/09 14:05:11;;;;;;;67.33;33.87;;;;;;;;;;5063801;28;20685;-50
2021/03/09 14:07:37;;;;;;;62.22;31.30;;;;;;;;;;5073663;28;20400;-51
2021/03/09 14:10:04;;;;;;;66.68;30.63;;;;;;;;;;5073578;28;20254;-50
2021/03/09 14:12:30;;;;;;;57.78;32.78;;;;;;;;;;5073749;28;20532;-50
2021/03/09 14:14:56;;;;;;;62.07;33.90;;;;;;;;;;5073470;28;20261;-50
2021/03/09 14:17:22;;;;;;;65.40;32.30;;;;;;;;;;5073370;28;20792;-50
2021/03/09 14:19:48;;;;;;;69.18;33.85;;;;;;;;;;5073632;28;20466;-50